UKLR/RWN METAR and TAF weather

Enter ICAO airport designator
Station Type Date Time Source
UKLR METAR 2021/09/20 04:30 UTC NOAA

UKLR 200430Z 29004MPS 260V320 9999 OVC005 07/06 Q1010 NOSIG


Station Type Date Time Source
UKLR Decoded METAR 2021/09/20 04:30 UTC NOAA

Rivne, Ukraine (UKLR) 50-35N 026-08E
Sep 20, 2021 - 12:30 AM EDT / 2021.09.20 0430 UTC
Wind: from the WNW (290 degrees) at 9 MPH (8 KT) (direction variable):0
Visibility: greater than 7 mile(s):0
Sky conditions: overcast
Temperature: 44 F (7 C)
Dew Point: 42 F (6 C)
Relative Humidity: 93%
Pressure (altimeter): 29.83 in. Hg (1010 hPa)
ob: UKLR 200430Z 29004MPS 260V320 9999 OVC005 07/06 Q1010 NOSIG
cycle: 4

Station Type Date Time Source
UKLR TAF 2019/08/16 12:15 UTC NOAA

TAF TAF UKLR 161105Z 1612/1821 35003MPS 9999 BKN020 SCT023CB

Example: see airport list